Time;durP1;ratioP1;P1;durP2;ratioP2;P2;SDS_P1;SDS_P2;PMS_P1;PMS_P2;Temp;Humidity;BMP_temperature;BMP_pressure;BME280_temperature;BME280_humidity;BME280_pressure;Samples;Min_cycle;Max_cycle;Signal;HPM_P1;HPM_P2
2022/07/31 00:00:40;;;;;;;1.80;1.38;;;22.30;67.10;;;;;;4812704;29;20034;-76
2022/07/31 00:03:06;;;;;;;1.48;1.38;;;22.20;67.00;;;;;;4812578;29;20152;-75
2022/07/31 00:05:33;;;;;;;1.55;1.42;;;22.20;67.00;;;;;;4813594;29;20042;-75
2022/07/31 00:07:59;;;;;;;1.45;1.20;;;22.20;67.10;;;;;;4813128;29;20045;-75
2022/07/31 00:10:25;;;;;;;1.88;1.20;;;22.20;67.10;;;;;;4813494;29;20030;-75
2022/07/31 00:12:51;;;;;;;2.80;1.35;;;22.20;67.10;;;;;;4795766;29;20027;-75
2022/07/31 00:15:17;;;;;;;1.75;1.65;;;22.20;67.20;;;;;;4813938;29;20113;-76
2022/07/31 00:17:44;;;;;;;1.50;1.25;;;22.20;67.20;;;;;;4811643;29;20061;-76
2022/07/31 00:20:12;;;;;;;2.15;1.20;;;22.20;67.30;;;;;;4813493;29;20433;-75
2022/07/31 00:22:43;;;;;;;1.45;1.35;;;22.20;67.30;;;;;;4813495;29;20030;-74
2022/07/31 00:25:11;;;;;;;1.30;1.20;;;22.20;67.40;;;;;;4812632;29;20042;-74
2022/07/31 00:27:37;;;;;;;1.63;1.52;;;22.20;67.40;;;;;;4813066;29;20117;-75
2022/07/31 00:30:04;;;;;;;2.30;1.40;;;22.10;67.20;;;;;;4813463;29;20330;-75
2022/07/31 00:32:30;;;;;;;3.58;1.50;;;22.10;67.30;;;;;;4794630;29;20187;-75
2022/07/31 00:34:56;;;;;;;2.10;1.55;;;22.10;67.30;;;;;;4814053;29;20068;-75
2022/07/31 00:37:22;;;;;;;2.15;1.13;;;22.10;67.40;;;;;;4796757;29;20138;-75
2022/07/31 00:39:48;;;;;;;2.05;1.52;;;22.10;67.40;;;;;;4813806;29;20410;-75
2022/07/31 00:42:23;;;;;;;1.55;1.00;;;22.10;67.50;;;;;;4813182;29;20049;-75
2022/07/31 00:44:51;;;;;;;2.25;1.70;;;22.10;67.50;;;;;;4809869;29;20042;-75
2022/07/31 00:47:17;;;;;;;1.55;1.20;;;22.10;67.50;;;;;;4811954;29;20485;-75
2022/07/31 00:49:44;;;;;;;1.88;1.00;;;22.10;67.60;;;;;;4813109;29;20192;-75
2022/07/31 00:52:11;;;;;;;1.05;0.90;;;22.10;67.60;;;;;;4796669;29;20497;-75
2022/07/31 00:54:38;;;;;;;1.70;1.30;;;22.10;67.70;;;;;;4797030;29;20081;-75
2022/07/31 00:57:05;;;;;;;2.97;1.27;;;22.10;67.70;;;;;;4812609;29;20085;-75
2022/07/31 00:59:31;;;;;;;2.67;1.48;;;22.10;67.70;;;;;;4796625;29;20121;-75
2022/07/31 01:01:58;;;;;;;1.38;1.27;;;22.10;67.80;;;;;;4812987;29;20062;-75
2022/07/31 01:04:25;;;;;;;2.45;1.25;;;22.10;67.90;;;;;;4795746;29;20050;-75
2022/07/31 01:06:52;;;;;;;3.47;1.63;;;22.00;67.70;;;;;;4812730;29;20058;-75
2022/07/31 01:09:18;;;;;;;1.98;1.20;;;22.00;67.80;;;;;;4812475;29;20430;-75
2022/07/31 01:12:26;;;;;;;3.47;1.95;;;22.00;67.90;;;;;;4812725;29;20262;-74
2022/07/31 01:14:55;;;;;;;2.42;1.50;;;22.00;68.10;;;;;;4801485;29;20038;-75
2022/07/31 01:17:23;;;;;;;3.40;2.20;;;22.10;68.10;;;;;;4795483;29;20026;-75
2022/07/31 01:19:51;;;;;;;2.25;1.90;;;22.00;68.00;;;;;;4796752;29;20125;-75
2022/07/31 01:22:56;;;;;;;4.70;2.03;;;22.00;68.10;;;;;;4799037;29;20035;-74
2022/07/31 01:25:57;;;;;;;3.50;1.70;;;22.00;68.20;;;;;;4799830;29;20350;-75
2022/07/31 01:28:46;;;;;;;3.38;2.53;;;22.00;68.20;;;;;;4814533;29;20045;-75
2022/07/31 01:31:18;;;;;;;3.97;2.35;;;22.00;68.20;;;;;;4815165;29;20051;-75
2022/07/31 01:33:49;;;;;;;;;;;22.00;68.20;;;;;;4799900;29;20100;-75
2022/07/31 01:36:20;;;;;;;4.63;2.55;;;22.00;68.20;;;;;;4812569;29;19931;-74
2022/07/31 01:38:50;;;;;;;5.22;2.28;;;22.00;68.10;;;;;;4799347;29;20243;-75
2022/07/31 01:41:23;;;;;;;4.10;1.83;;;22.00;68.20;;;;;;4805204;29;20072;-75
2022/07/31 01:43:53;;;;;;;3.65;1.98;;;21.90;68.20;;;;;;4806201;29;20049;-75
2022/07/31 01:46:21;;;;;;;3.55;2.25;;;22.00;68.40;;;;;;4800277;29;20042;-75
2022/07/31 01:48:49;;;;;;;3.67;2.38;;;22.00;68.40;;;;;;4800635;29;20031;-75
2022/07/31 01:51:17;;;;;;;2.47;2.28;;;21.90;68.30;;;;;;4815127;29;20505;-75
2022/07/31 01:53:46;;;;;;;3.63;2.42;;;22.00;68.60;;;;;;4800195;29;20493;-75
2022/07/31 01:56:17;;;;;;;2.45;2.10;;;21.90;68.40;;;;;;4814643;29;20049;-74
2022/07/31 01:58:45;;;;;;;2.80;2.10;;;21.90;68.50;;;;;;4799527;29;20048;-74
2022/07/31 02:01:31;;;;;;;3.85;2.30;;;21.90;68.50;;;;;;4799912;29;20133;-74
2022/07/31 02:03:58;;;;;;;4.88;2.75;;;21.90;68.50;;;;;;4798906;29;20034;-74
2022/07/31 02:06:25;;;;;;;2.75;2.47;;;21.90;68.50;;;;;;4799944;29;20034;-74
2022/07/31 02:08:53;;;;;;;4.80;2.53;;;21.90;68.50;;;;;;4799981;29;20054;-74
2022/07/31 02:11:21;;;;;;;4.28;2.92;;;21.90;68.60;;;;;;4804928;29;20030;-74
2022/07/31 02:13:49;;;;;;;3.33;3.03;;;21.90;68.60;;;;;;4799431;29;20267;-74
2022/07/31 02:16:17;;;;;;;3.88;2.72;;;21.90;68.60;;;;;;4814487;29;20560;-75
2022/07/31 02:18:46;;;;;;;3.45;2.65;;;21.90;68.70;;;;;;4798843;29;20115;-74
2022/07/31 02:21:20;;;;;;;4.55;3.30;;;21.90;68.70;;;;;;4800454;29;20042;-74
2022/07/31 02:23:46;;;;;;;3.33;2.50;;;21.90;68.70;;;;;;4815849;29;20350;-73
2022/07/31 02:26:15;;;;;;;4.70;2.97;;;21.90;68.70;;;;;;4798754;29;20038;-75
2022/07/31 02:28:43;;;;;;;3.83;2.47;;;21.90;68.70;;;;;;4799496;29;20056;-75
2022/07/31 02:31:12;;;;;;;3.78;2.60;;;21.90;68.70;;;;;;4813556;29;20561;-74
2022/07/31 02:33:42;;;;;;;5.03;3.22;;;21.90;69.00;;;;;;4798502;29;20023;-75
2022/07/31 02:36:10;;;;;;;2.75;2.45;;;21.90;68.70;;;;;;4816196;29;20046;-75
2022/07/31 02:38:38;;;;;;;2.95;2.42;;;21.90;68.70;;;;;;4811339;29;20059;-76
2022/07/31 02:41:04;;;;;;;4.72;3.17;;;21.90;68.70;;;;;;4811632;29;20043;-74
2022/07/31 02:43:32;;;;;;;3.47;2.85;;;21.90;68.80;;;;;;4796790;29;20031;-74
2022/07/31 02:46:03;;;;;;;3.65;3.05;;;21.90;68.80;;;;;;4796518;29;20043;-75
2022/07/31 02:48:31;;;;;;;3.15;2.85;;;21.90;68.80;;;;;;4793245;29;20087;-75
2022/07/31 02:51:02;;;;;;;3.20;2.85;;;21.90;68.80;;;;;;4796251;29;20866;-75
2022/07/31 02:53:29;;;;;;;3.28;2.67;;;21.90;68.80;;;;;;4796602;29;20058;-75
2022/07/31 02:56:03;;;;;;;3.03;2.10;;;21.90;68.80;;;;;;4796507;29;20039;-74
2022/07/31 02:58:32;;;;;;;2.40;2.03;;;21.90;68.80;;;;;;4795997;29;20550;-75
2022/07/31 03:01:05;;;;;;;3.10;2.60;;;21.90;68.80;;;;;;4796499;29;20058;-74
2022/07/31 03:03:32;;;;;;;3.30;2.67;;;21.90;68.90;;;;;;4795157;29;20573;-74
2022/07/31 03:05:58;;;;;;;3.72;2.53;;;21.90;68.80;;;;;;4797801;29;20117;-74
2022/07/31 03:08:24;;;;;;;3.40;2.35;;;21.90;69.40;;;;;;4796432;29;20451;-75
2022/07/31 03:10:52;;;;;;;2.53;2.22;;;21.90;68.80;;;;;;4795749;29;20026;-74
2022/07/31 03:13:23;;;;;;;6.63;3.28;;;21.90;68.90;;;;;;4795784;29;20041;-75
2022/07/31 03:15:50;;;;;;;4.03;3.13;;;21.90;68.90;;;;;;4797868;29;20035;-76
2022/07/31 03:18:18;;;;;;;4.68;2.65;;;21.90;68.90;;;;;;4794550;29;20026;-76
2022/07/31 03:20:45;;;;;;;2.75;2.50;;;21.90;68.90;;;;;;4796254;29;20070;-76
2022/07/31 03:23:12;;;;;;;3.05;2.50;;;21.90;68.90;;;;;;4811567;29;20030;-76
2022/07/31 03:25:49;;;;;;;3.92;2.40;;;21.90;68.90;;;;;;4796333;29;20046;-76
2022/07/31 03:28:18;;;;;;;3.10;2.45;;;21.80;68.80;;;;;;4809891;29;20038;-75
2022/07/31 03:30:45;;;;;;;3.92;2.20;;;21.80;68.80;;;;;;4796265;29;20106;-75
2022/07/31 03:33:11;;;;;;;3.83;2.13;;;21.80;68.80;;;;;;4795837;29;20460;-74
2022/07/31 03:35:37;;;;;;;2.53;1.98;;;21.80;68.90;;;;;;4796050;29;20280;-74
2022/07/31 03:38:04;;;;;;;2.85;2.33;;;21.80;68.90;;;;;;4809074;29;20061;-74
2022/07/31 03:40:31;;;;;;;4.68;2.63;;;21.80;69.00;;;;;;4813612;29;20030;-74
2022/07/31 03:42:59;;;;;;;4.70;2.72;;;21.80;69.00;;;;;;4797265;29;20386;-74
2022/07/31 03:45:26;;;;;;;4.18;2.95;;;21.80;69.10;;;;;;4798249;29;20409;-74
2022/07/31 03:47:52;;;;;;;3.78;2.55;;;21.80;69.60;;;;;;4797392;29;20121;-74
2022/07/31 03:50:21;;;;;;;3.15;2.55;;;21.80;69.10;;;;;;4799130;29;20141;-75
2022/07/31 03:52:48;;;;;;;2.60;2.20;;;21.80;69.20;;;;;;4798936;29;20045;-74
2022/07/31 03:55:15;;;;;;;2.63;2.20;;;21.80;69.20;;;;;;4798771;29;20044;-74
2022/07/31 03:57:41;;;;;;;2.58;2.38;;;21.80;69.20;;;;;;4814441;29;20019;-74
2022/07/31 04:00:08;;;;;;;3.63;2.05;;;21.70;69.10;;;;;;4814221;29;20093;-74
2022/07/31 04:02:42;;;;;;;3.45;2.22;;;21.70;69.10;;;;;;4811454;29;20645;-74
2022/07/31 04:05:29;;;;;;;3.60;2.78;;;21.80;69.30;;;;;;4811615;29;20054;-74
2022/07/31 04:07:55;;;;;;;2.65;2.42;;;21.70;69.10;;;;;;4802953;29;20544;-74
2022/07/31 04:10:21;;;;;;;4.50;2.85;;;21.70;69.10;;;;;;4805299;29;20030;-73
2022/07/31 04:12:47;;;;;;;3.13;1.95;;;21.70;69.20;;;;;;4812420;29;20803;-73
2022/07/31 04:15:13;;;;;;;3.10;2.60;;;21.70;69.20;;;;;;4829298;29;20110;-73
2022/07/31 04:17:39;;;;;;;3.00;2.70;;;21.70;69.20;;;;;;4811908;29;20030;-74
2022/07/31 04:20:08;;;;;;;4.45;2.22;;;21.60;69.10;;;;;;4802456;29;20030;-73
2022/07/31 04:22:33;;;;;;;3.35;2.22;;;21.70;69.30;;;;;;4798164;29;20039;-75
2022/07/31 04:25:01;;;;;;;3.95;2.60;;;21.70;69.40;;;;;;4813219;29;20102;-76
2022/07/31 04:27:43;;;;;;;3.28;2.63;;;21.70;69.40;;;;;;4797460;29;20440;-75
2022/07/31 04:30:10;;;;;;;3.05;2.50;;;21.70;69.40;;;;;;4797748;29;20026;-73
2022/07/31 04:32:36;;;;;;;2.83;2.08;;;21.70;69.50;;;;;;4797202;29;20102;-75
2022/07/31 04:35:06;;;;;;;4.68;2.50;;;21.60;69.40;;;;;;4798414;29;20034;-75
2022/07/31 04:37:32;;;;;;;3.60;2.55;;;21.60;69.40;;;;;;4797954;29;20517;-75
2022/07/31 04:39:59;;;;;;;3.67;2.60;;;21.60;69.50;;;;;;4797983;29;20030;-75
2022/07/31 04:42:25;;;;;;;4.03;2.60;;;21.60;69.50;;;;;;4797879;29;20697;-76
2022/07/31 04:44:51;;;;;;;2.88;2.17;;;21.60;69.60;;;;;;4797771;29;20042;-76
2022/07/31 04:47:16;;;;;;;3.38;2.28;;;21.60;69.60;;;;;;4795295;29;20046;-76
2022/07/31 04:49:46;;;;;;;4.43;2.38;;;21.60;69.70;;;;;;4808272;29;20482;-76
2022/07/31 04:52:15;;;;;;;5.35;2.70;;;21.60;69.70;;;;;;4797457;29;20125;-73
2022/07/31 04:54:44;;;;;;;3.30;2.30;;;21.60;69.80;;;;;;4817757;29;20041;-73
2022/07/31 04:57:11;;;;;;;3.50;2.47;;;21.50;69.70;;;;;;4802950;29;20026;-75
2022/07/31 04:59:37;;;;;;;4.03;2.65;;;21.60;69.80;;;;;;4799642;29;20045;-74
2022/07/31 05:02:03;;;;;;;4.47;2.58;;;21.50;69.70;;;;;;4798757;29;20492;-75
2022/07/31 05:04:29;;;;;;;2.33;2.05;;;21.50;69.80;;;;;;4799526;29;20039;-75
2022/07/31 05:06:55;;;;;;;5.80;3.35;;;21.50;69.80;;;;;;4816080;29;20050;-75
2022/07/31 05:09:22;;;;;;;4.35;2.40;;;21.50;69.90;;;;;;4800213;29;20679;-75
2022/07/31 05:11:51;;;;;;;4.38;2.72;;;21.50;70.00;;;;;;4813803;29;20030;-75
2022/07/31 05:14:19;;;;;;;2.40;2.20;;;21.50;70.10;;;;;;4794424;29;20126;-75
2022/07/31 05:16:46;;;;;;;3.58;2.80;;;21.50;70.10;;;;;;4798135;29;20148;-74
2022/07/31 05:19:15;;;;;;;4.50;2.28;;;21.50;70.10;;;;;;4784823;29;20084;-75
2022/07/31 05:21:58;;;;;;;3.17;2.53;;;21.50;70.20;;;;;;4812049;29;20049;-78
2022/07/31 05:24:42;;;;;;;4.45;2.97;;;21.50;70.20;;;;;;4816115;29;20087;-78
2022/07/31 05:27:10;;;;;;;3.50;2.42;;;21.40;70.00;;;;;;4813686;29;20450;-76
2022/07/31 05:29:38;;;;;;;3.65;2.70;;;21.50;70.30;;;;;;4794008;29;20547;-77
2022/07/31 05:32:04;;;;;;;3.33;2.33;;;21.50;70.30;;;;;;4813705;29;20257;-75
2022/07/31 05:34:31;;;;;;;4.18;2.97;;;21.50;70.40;;;;;;4800738;29;20095;-77
2022/07/31 05:37:02;;;;;;;4.22;2.88;;;21.50;70.50;;;;;;4799688;29;20042;-76
2022/07/31 05:39:30;;;;;;;4.82;2.60;;;21.50;70.50;;;;;;4800698;29;20061;-77
2022/07/31 05:42:15;;;;;;;3.08;2.20;;;21.50;70.50;;;;;;4814454;29;20042;-76
2022/07/31 05:45:16;;;;;;;4.38;2.30;;;21.60;70.60;;;;;;4767798;29;20430;-76
2022/07/31 05:47:43;;;;;;;5.63;1.80;;;21.50;70.50;;;;;;4787810;29;20041;-78
2022/07/31 05:50:09;;;;;;;2.33;2.13;;;21.50;70.50;;;;;;4798315;29;20414;-82
2022/07/31 05:52:35;;;;;;;3.97;2.70;;;21.50;70.60;;;;;;4804264;29;20061;-77
2022/07/31 05:55:12;;;;;;;3.17;1.80;;;21.60;70.80;;;;;;4798453;29;20038;-77
2022/07/31 05:57:50;;;;;;;2.95;2.00;;;21.60;70.80;;;;;;4813783;29;20441;-77
2022/07/31 06:00:16;;;;;;;2.38;1.60;;;21.60;70.80;;;;;;4796708;29;20661;-78
2022/07/31 06:02:44;;;;;;;2.97;1.50;;;21.60;70.80;;;;;;4817197;29;20121;-79
2022/07/31 06:05:30;;;;;;;2.42;1.85;;;21.60;70.80;;;;;;4817550;29;20454;-78
2022/07/31 06:07:58;;;;;;;1.98;1.40;;;21.70;71.00;;;;;;4819418;29;20050;-79
2022/07/31 06:10:25;;;;;;;2.88;2.15;;;21.70;71.00;;;;;;4805814;29;20030;-79
2022/07/31 06:12:51;;;;;;;5.03;1.60;;;21.70;71.30;;;;;;4800637;29;20035;-78
2022/07/31 06:15:17;;;;;;;3.92;2.00;;;21.70;72.10;;;;;;4799219;29;20109;-79
2022/07/31 06:17:44;;;;;;;4.22;2.15;;;21.80;72.80;;;;;;4813419;29;20477;-77
2022/07/31 06:20:18;;;;;;;2.05;1.63;;;21.80;73.30;;;;;;4800099;29;20042;-77
2022/07/31 06:22:44;;;;;;;2.72;1.75;;;21.80;73.70;;;;;;4813770;29;20038;-77
2022/07/31 06:25:12;;;;;;;2.30;1.38;;;21.80;74.00;;;;;;4783819;29;20051;-77
2022/07/31 06:27:38;;;;;;;4.20;2.15;;;21.90;74.40;;;;;;4798259;29;20053;-77
2022/07/31 06:30:05;;;;;;;4.47;1.63;;;21.90;74.60;;;;;;4817324;29;20415;-78
2022/07/31 06:32:32;;;;;;;2.88;1.63;;;22.00;74.90;;;;;;4818576;29;20038;-80
2022/07/31 06:34:59;;;;;;;2.97;1.52;;;22.00;75.10;;;;;;4810743;29;20066;-79
2022/07/31 06:37:26;;;;;;;4.20;1.77;;;22.00;75.20;;;;;;4806771;29;20528;-80
2022/07/31 06:39:53;;;;;;;3.30;1.20;;;22.10;75.40;;;;;;4800596;29;20904;-79
2022/07/31 06:42:37;;;;;;;1.67;1.10;;;22.10;75.40;;;;;;4808164;29;20438;-79
2022/07/31 06:45:03;;;;;;;1.80;1.20;;;22.10;75.30;;;;;;4817212;29;20042;-80
2022/07/31 06:47:48;;;;;;;2.47;1.10;;;22.20;75.50;;;;;;4800124;29;20034;-77
2022/07/31 06:50:23;;;;;;;4.13;1.10;;;22.20;75.50;;;;;;4800850;29;20058;-76
2022/07/31 06:53:10;;;;;;;2.53;1.13;;;22.20;75.50;;;;;;4799526;29;20109;-78
2022/07/31 06:55:36;;;;;;;3.05;1.10;;;22.30;75.70;;;;;;4798078;29;20042;-76
2022/07/31 06:58:02;;;;;;;4.38;1.10;;;22.30;75.70;;;;;;4813493;29;20031;-77
2022/07/31 07:00:28;;;;;;;4.43;1.38;;;22.30;75.70;;;;;;4797134;29;20092;-77
2022/07/31 07:02:55;;;;;;;2.67;1.40;;;22.30;75.60;;;;;;4794747;29;20072;-77
2022/07/31 07:05:21;;;;;;;2.13;0.90;;;22.30;75.50;;;;;;4798087;29;20529;-77
2022/07/31 07:07:50;;;;;;;2.88;1.48;;;22.40;75.60;;;;;;4797229;29;20030;-76
2022/07/31 07:10:16;;;;;;;2.95;1.58;;;22.50;75.60;;;;;;4797267;29;20094;-77
2022/07/31 07:13:02;;;;;;;4.43;1.38;;;22.50;75.40;;;;;;4808883;29;20027;-76
2022/07/31 07:15:33;;;;;;;2.45;1.25;;;22.60;75.40;;;;;;4810933;29;20184;-76
2022/07/31 07:17:59;;;;;;;2.15;0.75;;;22.60;75.20;;;;;;4812800;29;20500;-77
2022/07/31 07:20:33;;;;;;;1.70;0.80;;;22.70;75.30;;;;;;4795605;29;20495;-76
2022/07/31 07:23:00;;;;;;;3.47;1.60;;;22.70;75.20;;;;;;4796840;29;20195;-75
2022/07/31 07:25:35;;;;;;;4.75;1.77;;;22.70;75.10;;;;;;4797750;29;20113;-77
2022/07/31 07:28:01;;;;;;;4.32;1.20;;;22.60;75.00;;;;;;4797489;29;20132;-77
2022/07/31 07:30:27;;;;;;;3.13;0.85;;;22.70;75.10;;;;;;4812645;29;20039;-76
2022/07/31 07:32:56;;;;;;;3.47;0.98;;;22.70;75.00;;;;;;4795953;29;20090;-76
2022/07/31 07:35:22;;;;;;;2.72;1.00;;;22.70;75.00;;;;;;4815876;29;20717;-76
2022/07/31 07:37:52;;;;;;;2.83;1.20;;;22.80;75.10;;;;;;4797357;29;20556;-77
2022/07/31 07:40:19;;;;;;;2.72;1.02;;;22.80;75.00;;;;;;4800507;29;20493;-76
2022/07/31 07:42:45;;;;;;;2.75;0.95;;;22.70;74.80;;;;;;4811430;29;20046;-76
2022/07/31 07:45:12;;;;;;;2.88;1.08;;;22.80;74.90;;;;;;4814689;29;20042;-77
2022/07/31 07:47:38;;;;;;;2.90;1.23;;;22.80;74.70;;;;;;4797118;29;20191;-77
2022/07/31 07:50:06;;;;;;;3.53;1.13;;;22.80;74.70;;;;;;4816684;29;20161;-76
2022/07/31 07:52:51;;;;;;;2.38;1.25;;;22.90;74.70;;;;;;4800459;29;20089;-77
2022/07/31 07:55:37;;;;;;;3.30;1.50;;;22.90;74.60;;;;;;4802453;29;20034;-76
2022/07/31 07:58:22;;;;;;;3.65;0.93;;;22.90;74.50;;;;;;4813379;29;20485;-76
2022/07/31 08:01:07;;;;;;;1.85;0.95;;;22.90;74.40;;;;;;4810632;29;20069;-76
2022/07/31 08:03:33;;;;;;;2.30;0.93;;;23.00;74.40;;;;;;4797288;29;20644;-76
2022/07/31 08:05:59;;;;;;;6.63;1.70;;;23.10;74.40;;;;;;4812196;29;20065;-77
2022/07/31 08:08:26;;;;;;;2.53;1.45;;;23.10;74.20;;;;;;4797635;29;20030;-76
2022/07/31 08:11:10;;;;;;;3.50;0.93;;;23.20;74.20;;;;;;4811473;29;20041;-76
2022/07/31 08:13:55;;;;;;;1.83;0.77;;;23.30;74.20;;;;;;4793958;29;20129;-76
2022/07/31 08:16:41;;;;;;;5.15;1.23;;;23.40;74.10;;;;;;4777041;29;20129;-77
2022/07/31 08:19:07;;;;;;;2.13;0.70;;;23.50;74.00;;;;;;4795842;29;20035;-77
2022/07/31 08:21:34;;;;;;;3.63;1.33;;;23.60;73.80;;;;;;4813253;29;20042;-76
2022/07/31 08:24:01;;;;;;;3.45;1.20;;;23.70;73.70;;;;;;4799292;29;20611;-77
2022/07/31 08:27:22;;;;;;;1.58;0.70;;;23.70;73.50;;;;;;4798804;29;20038;-77
2022/07/31 08:29:13;;;;;;;1.23;0.63;;;23.70;73.50;;;;;;4801560;29;20092;-77
2022/07/31 08:31:41;;;;;;;2.22;0.88;;;23.80;73.50;;;;;;4818098;29;20044;-77
2022/07/31 08:34:27;;;;;;;0.93;0.47;;;23.80;73.30;;;;;;4804216;29;20037;-76
2022/07/31 08:36:53;;;;;;;3.33;0.70;;;23.90;73.20;;;;;;4804140;29;20084;-78
2022/07/31 08:39:19;;;;;;;2.08;1.25;;;24.00;73.20;;;;;;4820158;29;20023;-76
2022/07/31 08:41:55;;;;;;;2.58;0.70;;;24.10;73.10;;;;;;4815811;29;20053;-76
2022/07/31 08:44:21;;;;;;;1.60;0.50;;;24.20;72.90;;;;;;4817351;29;20371;-77
2022/07/31 08:46:48;;;;;;;2.08;0.90;;;24.30;72.80;;;;;;4819971;29;20034;-77
2022/07/31 08:49:16;;;;;;;3.03;0.77;;;24.30;72.50;;;;;;4818890;29;20559;-76
2022/07/31 08:51:44;;;;;;;3.85;1.42;;;24.50;72.60;;;;;;4804023;29;20038;-76
2022/07/31 08:54:13;;;;;;;2.72;1.23;;;24.50;72.30;;;;;;4817907;29;20118;-79
2022/07/31 08:56:41;;;;;;;2.72;0.75;;;24.70;72.20;;;;;;4803226;29;20018;-79
2022/07/31 08:59:08;;;;;;;2.30;0.70;;;24.80;72.00;;;;;;4819878;29;20088;-78
2022/07/31 09:01:35;;;;;;;3.58;1.10;;;24.90;71.90;;;;;;4820100;29;20065;-78
2022/07/31 09:04:02;;;;;;;2.03;1.15;;;25.00;71.80;;;;;;4820508;29;20086;-80
2022/07/31 09:06:28;;;;;;;3.88;1.30;;;25.00;71.50;;;;;;4807902;29;20137;-79
2022/07/31 09:08:57;;;;;;;2.95;1.10;;;25.10;71.40;;;;;;4787177;29;20181;-80
2022/07/31 09:11:23;;;;;;;3.00;1.08;;;25.10;71.20;;;;;;4821467;29;20046;-80
2022/07/31 09:14:33;;;;;;;3.25;1.50;;;25.10;71.10;;;;;;4819931;29;20333;-80
2022/07/31 09:17:02;;;;;;;2.40;0.93;;;25.20;71.00;;;;;;4817475;29;20030;-79
2022/07/31 09:19:44;;;;;;;2.67;1.58;;;25.20;71.00;;;;;;4802533;29;20323;-80
2022/07/31 09:22:27;;;;;;;4.55;1.33;;;25.20;70.90;;;;;;4808458;29;20033;-77
2022/07/31 09:25:19;;;;;;;1.92;0.70;;;25.30;70.90;;;;;;4809034;29;20053;-77
2022/07/31 09:27:47;;;;;;;4.03;1.13;;;25.20;70.80;;;;;;4822220;29;20173;-77
2022/07/31 09:30:14;;;;;;;2.15;1.10;;;25.30;71.30;;;;;;4810344;29;20034;-78
2022/07/31 09:32:52;;;;;;;1.67;0.70;;;25.40;70.60;;;;;;4819929;29;20082;-78
2022/07/31 09:35:46;;;;;;;2.97;1.40;;;25.40;70.40;;;;;;4801080;29;20038;-81
2022/07/31 09:38:13;;;;;;;1.80;0.90;;;25.60;70.40;;;;;;4800801;29;20065;-81
2022/07/31 09:41:11;;;;;;;2.33;1.05;;;25.60;70.10;;;;;;4797862;29;20410;-81
2022/07/31 09:44:06;;;;;;;1.90;0.90;;;25.70;70.00;;;;;;4807096;29;20056;-82
2022/07/31 09:46:45;;;;;;;1.75;0.80;;;25.80;69.80;;;;;;4810014;29;20373;-83
2022/07/31 09:49:11;;;;;;;2.17;1.00;;;25.90;69.60;;;;;;4803033;29;20034;-83
2022/07/31 09:51:40;;;;;;;2.83;0.80;;;25.90;70.00;;;;;;4803096;29;20310;-82
2022/07/31 09:54:18;;;;;;;2.97;1.30;;;26.00;69.40;;;;;;4799570;29;20394;-82
2022/07/31 09:57:12;;;;;;;2.63;0.90;;;26.10;69.20;;;;;;4816293;29;20243;-83
2022/07/31 09:59:44;;;;;;;2.38;1.10;;;26.20;68.90;;;;;;4822348;29;20035;-81
2022/07/31 10:02:14;;;;;;;0.75;0.73;;;26.40;68.70;;;;;;4819289;29;20062;-82
2022/07/31 10:04:41;;;;;;;1.73;0.68;;;26.60;68.30;;;;;;4822377;29;20136;-81
2022/07/31 10:07:12;;;;;;;1.20;0.60;;;26.70;68.00;;;;;;4813251;29;20629;-81
2022/07/31 10:09:42;;;;;;;1.35;0.50;;;26.80;67.70;;;;;;4823836;29;20071;-83
2022/07/31 10:12:19;;;;;;;2.58;0.80;;;26.90;67.40;;;;;;4838651;29;20101;-82
2022/07/31 10:14:49;;;;;;;1.33;0.70;;;27.00;67.10;;;;;;4809699;29;20094;-81
2022/07/31 10:17:21;;;;;;;3.58;1.08;;;27.00;66.90;;;;;;4822771;29;20034;-80
2022/07/31 10:20:04;;;;;;;1.27;0.70;;;27.00;66.90;;;;;;4820341;29;20085;-82
2022/07/31 10:23:00;;;;;;;1.38;0.73;;;26.90;66.90;;;;;;4803882;29;20026;-81
2022/07/31 10:25:30;;;;;;;1.45;0.70;;;26.80;66.90;;;;;;4803189;29;20050;-81
2022/07/31 10:27:57;;;;;;;1.08;0.82;;;26.70;66.90;;;;;;4816189;29;20571;-81
2022/07/31 10:30:25;;;;;;;5.47;1.65;;;26.70;67.00;;;;;;4801066;29;20212;-82
2022/07/31 10:32:53;;;;;;;1.55;0.50;;;26.60;66.90;;;;;;4799511;29;20117;-81
2022/07/31 10:35:26;;;;;;;1.40;0.52;;;26.60;66.90;;;;;;4817230;29;20042;-81
2022/07/31 10:38:17;;;;;;;0.60;0.40;;;26.60;66.90;;;;;;4813085;29;20494;-82
2022/07/31 10:41:31;;;;;;;1.63;0.60;;;26.60;66.80;;;;;;4810833;29;20046;-82
2022/07/31 10:44:08;;;;;;;1.48;0.68;;;26.50;66.70;;;;;;4799812;29;20077;-82
2022/07/31 10:46:47;;;;;;;0.95;0.63;;;26.60;66.90;;;;;;4798823;29;20038;-82
2022/07/31 10:49:45;;;;;;;1.33;0.77;;;26.60;66.80;;;;;;4797280;29;20066;-82
2022/07/31 10:52:37;;;;;;;1.20;0.95;;;26.70;66.60;;;;;;4812910;29;20030;-82
2022/07/31 10:55:21;;;;;;;2.53;1.05;;;26.70;66.40;;;;;;4815032;29;20030;-83
2022/07/31 10:58:16;;;;;;;2.63;0.90;;;26.70;66.40;;;;;;4816340;29;20069;-78
2022/07/31 11:01:14;;;;;;;2.47;0.95;;;26.70;66.40;;;;;;4799687;29;20086;-77
2022/07/31 11:03:52;;;;;;;1.67;0.63;;;26.70;66.40;;;;;;4798688;29;20237;-78
2022/07/31 11:06:49;;;;;;;1.65;0.88;;;26.70;66.30;;;;;;4790131;29;20054;-77
2022/07/31 11:09:34;;;;;;;1.23;0.77;;;26.80;66.30;;;;;;4819369;29;20036;-83
2022/07/31 11:12:19;;;;;;;1.83;0.85;;;26.90;66.20;;;;;;4802452;29;20645;-79
2022/07/31 11:15:15;;;;;;;2.05;0.68;;;26.90;65.90;;;;;;4819012;29;20450;-79
2022/07/31 11:18:15;;;;;;;1.95;1.08;;;27.00;65.80;;;;;;4817432;29;20493;-79
2022/07/31 11:21:01;;;;;;;1.55;0.98;;;27.00;65.60;;;;;;4817729;29;20511;-77
2022/07/31 11:23:29;;;;;;;3.35;0.93;;;27.00;65.50;;;;;;4818027;29;20144;-78
2022/07/31 11:26:02;;;;;;;0.95;0.60;;;27.10;65.40;;;;;;4796247;29;20039;-78
2022/07/31 11:28:28;;;;;;;2.35;0.50;;;27.40;65.10;;;;;;4815259;29;20045;-77
2022/07/31 11:30:59;;;;;;;1.63;0.88;;;27.60;64.80;;;;;;4801856;29;20438;-78
2022/07/31 11:33:39;;;;;;;1.20;0.77;;;27.70;64.40;;;;;;4815495;29;20091;-77
2022/07/31 11:36:11;;;;;;;2.40;0.95;;;28.10;64.00;;;;;;4816680;29;20047;-78
2022/07/31 11:38:39;;;;;;;1.23;0.70;;;28.40;63.40;;;;;;4817745;29;20633;-77
2022/07/31 11:41:05;;;;;;;3.00;1.20;;;28.60;63.00;;;;;;4819193;29;20030;-78
2022/07/31 11:43:33;;;;;;;2.00;0.70;;;28.90;62.60;;;;;;4801081;29;20036;-78
2022/07/31 11:46:01;;;;;;;1.10;0.82;;;29.30;62.20;;;;;;4817731;29;20074;-77
2022/07/31 11:48:30;;;;;;;1.25;0.70;;;29.60;61.60;;;;;;4817899;29;20963;-78
2022/07/31 11:50:56;;;;;;;1.15;0.80;;;30.00;61.10;;;;;;4817926;29;20308;-78
2022/07/31 11:53:22;;;;;;;2.13;1.00;;;30.20;60.40;;;;;;4803478;29;20400;-79
2022/07/31 11:55:57;;;;;;;1.08;0.75;;;30.50;60.10;;;;;;4815747;29;20394;-79
2022/07/31 11:58:27;;;;;;;2.63;1.40;;;30.60;59.70;;;;;;4813034;29;20069;-81
2022/07/31 12:00:58;;;;;;;2.33;1.45;;;30.80;59.20;;;;;;4812144;29;20117;-80
2022/07/31 12:03:36;;;;;;;1.48;1.05;;;30.90;58.50;;;;;;4812214;29;20034;-80
2022/07/31 12:06:04;;;;;;;2.60;1.15;;;31.00;58.10;;;;;;4813197;29;20143;-82
2022/07/31 12:08:30;;;;;;;1.35;1.17;;;31.10;57.70;;;;;;4814942;29;20037;-82
2022/07/31 12:10:58;;;;;;;4.13;1.40;;;31.10;57.30;;;;;;4814681;29;20433;-79
2022/07/31 12:13:25;;;;;;;2.72;1.60;;;31.10;57.10;;;;;;4812525;29;20433;-79
2022/07/31 12:15:59;;;;;;;2.67;1.83;;;31.20;57.00;;;;;;4815472;29;20387;-80
2022/07/31 12:18:29;;;;;;;1.55;1.45;;;31.20;56.80;;;;;;4812562;29;20435;-80
2022/07/31 12:21:00;;;;;;;2.30;1.70;;;31.40;56.60;;;;;;4813003;29;20038;-79
2022/07/31 12:23:42;;;;;;;2.80;1.48;;;31.60;56.00;;;;;;4815526;29;20037;-78
2022/07/31 12:26:11;;;;;;;2.20;1.50;;;31.60;55.60;;;;;;4806264;29;20052;-77
2022/07/31 12:28:38;;;;;;;3.40;1.70;;;31.90;55.40;;;;;;4819275;29;20030;-78
2022/07/31 12:31:03;;;;;;;1.77;1.40;;;32.10;55.10;;;;;;4817793;29;20253;-79
2022/07/31 12:33:39;;;;;;;3.55;1.65;;;32.20;54.70;;;;;;4816542;29;20030;-77
2022/07/31 12:36:14;;;;;;;1.83;1.70;;;32.30;54.10;;;;;;4814367;29;20030;-79
2022/07/31 12:38:40;;;;;;;7.40;1.63;;;32.50;53.90;;;;;;4812009;29;20499;-80
2022/07/31 12:41:06;;;;;;;1.30;1.20;;;32.60;53.60;;;;;;4812718;29;20035;-82
2022/07/31 12:43:32;;;;;;;1.85;1.50;;;32.70;53.30;;;;;;4780977;29;20042;-83
2022/07/31 12:46:03;;;;;;;1.85;1.60;;;32.70;53.30;;;;;;4811331;29;20046;-81
2022/07/31 12:48:34;;;;;;;4.28;1.80;;;32.60;53.20;;;;;;4811933;29;20054;-81
2022/07/31 12:51:00;;;;;;;1.83;1.30;;;32.50;53.20;;;;;;4816261;29;20141;-80
2022/07/31 12:53:28;;;;;;;2.35;1.58;;;32.50;53.10;;;;;;4815280;29;20496;-81
2022/07/31 12:55:54;;;;;;;2.72;1.90;;;32.50;53.00;;;;;;4816463;29;20034;-83
2022/07/31 12:58:22;;;;;;;3.72;2.67;;;32.40;52.80;;;;;;4817502;29;20129;-79
2022/07/31 13:00:49;;;;;;;2.80;2.60;;;32.40;52.80;;;;;;4821235;29;20576;-82
2022/07/31 13:03:15;;;;;;;3.45;3.10;;;32.30;52.80;;;;;;4803683;29;20042;-81
2022/07/31 13:05:41;;;;;;;3.40;3.10;;;32.20;52.80;;;;;;4802778;29;20636;-84
2022/07/31 13:08:07;;;;;;;5.65;2.90;;;32.00;52.80;;;;;;4816044;29;20041;-81
2022/07/31 13:10:34;;;;;;;3.58;2.20;;;31.90;53.10;;;;;;4818276;29;20330;-83